.
WxDataArchive / Data Records for 2010-02-04
2010-02-03 February 2010 2010-02-05

Data Records for Thursday, 04 February 2010

Time	Temp	Chill	HIndex	Humid	Dewpt	 Wind 	HiWind	WindDir	Rain 	Barom 
-----	----	-----	------	-----	-----	------	------	-------	-----	----- 
00:00	29.4	29.4	29.4	81	24.3	0	0	---	0.00	30.422 
00:05	29.4	29.4	29.4	81	24.3	0	0	---	0.00	30.422 
00:10	29.4	29.4	29.4	81	24.3	0	0	---	0.00	30.422 
00:15	29.4	29.4	29.4	81	24.3	0	0	---	0.00	30.417 
00:20	29.4	29.4	29.4	81	24.3	0	0	---	0.00	30.417 
00:25	29.4	29.4	29.4	81	24.3	0	0	---	0.00	30.417 
00:30	29.4	29.4	29.4	81	24.3	0	0	---	0.00	30.417 
00:35	29.3	29.3	29.3	81	24.2	0	0	---	0.00	30.417 
00:40	29.3	29.3	29.3	81	24.2	0	0	---	0.00	30.417 
00:45	29.3	29.3	29.3	81	24.2	0	0	---	0.00	30.411 
00:50	29.3	29.3	29.3	81	24.2	0	0	---	0.00	30.411 
00:55	29.3	29.3	29.3	82	24.5	0	0	---	0.00	30.411 
01:00	29.1	29.1	29.1	82	24.3	0	0	---	0.00	30.406 
01:05	29.1	29.1	29.1	82	24.3	0	0	---	0.00	30.406 
01:10	29.1	29.1	29.1	82	24.3	0	0	---	0.00	30.406 
01:15	29.1	29.1	29.1	82	24.3	0	0	---	0.00	30.406 
01:20	29.1	29.1	29.1	82	24.3	0	0	---	0.00	30.406 
01:25	29.1	29.1	29.1	82	24.3	0	0	---	0.00	30.406 
01:30	29.0	29.0	29.0	82	24.2	0	0	---	0.00	30.403 
01:35	29.0	29.0	29.0	82	24.2	0	0	---	0.00	30.403 
01:40	29.0	29.0	29.0	82	24.2	0	0	---	0.00	30.403 
01:45	29.0	29.0	29.0	82	24.2	0	0	---	0.00	30.391 
01:50	28.8	28.8	28.8	82	24.0	0	0	---	0.00	30.391 
01:55	28.8	28.8	28.8	82	24.0	0	0	---	0.00	30.391 
02:00	28.8	28.8	28.8	81	23.7	0	0	---	0.00	30.392 
02:05	28.8	28.8	28.8	81	23.7	0	1	315	0.00	30.392 
02:10	28.7	28.7	28.7	79	23.0	0	0	---	0.00	30.392 
02:15	28.7	28.7	28.7	77	22.4	0	0	---	0.00	30.404 
02:20	28.7	28.7	28.7	76	22.1	0	0	---	0.00	30.404 
02:25	28.7	28.7	28.7	75	21.8	0	1	315	0.00	30.404 
02:30	28.7	28.7	28.7	73	21.2	0	3	68	0.00	30.407 
02:35	28.8	28.8	28.8	72	20.9	0	1	68	0.00	30.407 
02:40	28.8	28.8	28.8	73	21.3	0	1	68	0.00	30.407 
02:45	28.8	28.8	28.8	72	20.9	0	1	68	0.00	30.412 
02:50	28.8	28.8	28.8	72	20.9	0	0	---	0.00	30.412 
02:55	28.8	28.8	28.8	72	20.9	0	1	68	0.00	30.412 
03:00	28.8	28.8	28.8	73	21.3	0	0	---	0.00	30.408 
03:05	28.8	28.8	28.8	73	21.3	0	0	---	0.00	30.408 
03:10	28.8	28.8	28.8	73	21.3	0	0	---	0.00	30.408 
03:15	28.7	28.7	28.7	73	21.2	0	0	---	0.00	30.420 
03:20	28.7	28.7	28.7	74	21.5	0	0	---	0.00	30.420 
03:25	28.7	28.7	28.7	73	21.2	0	2	68	0.00	30.420 
03:30	28.7	28.7	28.7	73	21.2	0	0	---	0.00	30.419 
03:35	28.8	28.8	28.8	73	21.3	0	0	---	0.00	30.419 
03:40	28.8	28.8	28.8	73	21.3	0	1	68	0.00	30.419 
03:45	28.8	28.8	28.8	73	21.3	0	1	68	0.00	30.415 
03:50	28.8	28.8	28.8	73	21.3	0	0	---	0.00	30.415 
03:55	28.8	28.8	28.8	73	21.3	0	1	68	0.00	30.415 
04:00	28.8	28.8	28.8	73	21.3	0	1	68	0.00	30.426 
04:05	28.8	28.8	28.8	73	21.3	0	2	68	0.00	30.426 
04:10	28.7	28.7	28.7	72	20.8	0	1	68	0.00	30.426 
04:15	28.7	28.7	28.7	72	20.8	0	2	68	0.00	30.437 
04:20	28.7	28.7	28.7	72	20.8	0	1	68	0.00	30.437 
04:25	28.7	28.7	28.7	73	21.2	0	0	---	0.00	30.437 
04:30	28.7	28.7	28.7	73	21.2	0	0	---	0.00	30.438 
04:35	28.5	28.5	28.5	73	21.0	0	0	---	0.00	30.438 
04:40	28.5	28.5	28.5	73	21.0	0	0	---	0.00	30.438 
04:45	28.5	28.5	28.5	73	21.0	0	2	68	0.00	30.441 
04:50	28.5	28.5	28.5	72	20.6	0	2	68	0.00	30.441 
04:55	28.5	28.5	28.5	72	20.6	0	1	68	0.00	30.441 
05:00	28.5	28.5	28.5	72	20.6	0	0	---	0.00	30.435 
05:05	28.5	28.5	28.5	72	20.6	0	1	68	0.00	30.435 
05:10	28.4	28.4	28.4	73	20.9	0	1	68	0.00	30.435 
05:15	28.4	28.4	28.4	73	20.9	0	0	---	0.00	30.426 
05:20	28.2	28.2	28.2	73	20.7	0	0	---	0.00	30.426 
05:25	28.1	28.1	28.1	74	20.9	0	0	---	0.00	30.426 
05:30	27.9	27.9	27.9	74	20.7	0	0	---	0.00	30.424 
05:35	27.9	27.9	27.9	74	20.7	0	0	---	0.00	30.424 
05:40	27.8	27.8	27.8	74	20.6	0	0	---	0.00	30.424 
05:45	27.6	27.6	27.6	75	20.7	0	0	---	0.00	30.418 
05:50	27.6	27.6	27.6	75	20.7	0	0	---	0.00	30.418 
05:55	27.5	27.5	27.5	75	20.6	0	1	68	0.00	30.418 
06:00	27.3	27.3	27.3	75	20.4	0	0	---	0.00	30.415 
06:05	27.0	27.0	27.0	75	20.2	0	0	---	0.00	30.415 
06:10	26.9	26.9	26.9	76	20.4	0	0	---	0.00	30.415 
06:15	26.6	26.6	26.6	76	20.1	0	0	---	0.00	30.426 
06:20	26.3	26.3	26.3	76	19.8	0	0	---	0.00	30.426 
06:25	25.8	25.8	25.8	77	19.6	0	0	---	0.00	30.426 
06:30	25.6	25.6	25.6	77	19.4	0	0	---	0.00	30.427 
06:35	25.3	25.3	25.3	77	19.1	0	0	---	0.00	30.427 
06:40	25.0	25.0	25.0	78	19.1	0	0	---	0.00	30.427 
06:45	24.7	24.7	24.7	78	18.8	0	0	---	0.00	30.435 
06:50	24.5	24.5	24.5	79	18.9	0	0	---	0.00	30.435 
06:55	24.4	24.4	24.4	80	19.1	0	0	---	0.00	30.435 
07:00	24.2	24.2	24.2	80	18.9	0	0	---	0.00	30.441 
07:05	24.1	24.1	24.1	81	19.1	0	0	---	0.00	30.441 
07:10	23.9	23.9	23.9	81	18.9	0	0	---	0.00	30.441 
07:15	23.8	23.8	23.8	81	18.8	0	0	---	0.00	30.443 
07:20	23.6	23.6	23.6	82	18.9	0	0	---	0.00	30.443 
07:25	23.6	23.6	23.6	82	18.9	0	0	---	0.00	30.443 
07:30	23.5	23.5	23.5	82	18.8	0	0	---	0.00	30.444 
07:35	23.3	23.3	23.3	83	18.9	0	0	---	0.00	30.444 
07:40	23.2	23.2	23.2	83	18.8	0	0	---	0.00	30.444 
07:45	23.2	23.2	23.2	83	18.8	0	0	---	0.00	30.446 
07:50	23.0	23.0	23.0	83	18.6	0	0	---	0.00	30.446 
07:55	22.9	22.9	22.9	83	18.5	0	0	---	0.00	30.446 
08:00	22.7	22.7	22.7	83	18.3	0	0	---	0.00	30.449 
08:05	22.7	22.7	22.7	84	18.6	0	0	---	0.00	30.449 
08:10	22.7	22.7	22.7	84	18.6	0	0	---	0.00	30.449 
08:15	22.7	22.7	22.7	84	18.6	0	0	---	0.00	30.449 
08:20	22.9	22.9	22.9	85	19.1	0	0	---	0.00	30.449 
08:25	23.0	23.0	23.0	85	19.2	0	0	---	0.00	30.449 
08:30	23.2	23.2	23.2	85	19.4	0	0	---	0.00	30.461 
08:35	23.3	23.3	23.3	85	19.5	0	0	---	0.00	30.461 
08:40	23.6	23.6	23.6	86	20.0	0	0	---	0.00	30.461 
08:45	23.8	23.8	23.8	86	20.2	0	0	---	0.00	30.474 
08:50	24.1	24.1	24.1	86	20.5	0	0	---	0.00	30.474 
08:55	24.4	24.4	24.4	86	20.8	0	0	---	0.00	30.474 
09:00	24.7	24.7	24.7	86	21.1	0	0	---	0.00	30.474 
09:05	25.0	25.0	25.0	86	21.4	0	0	---	0.00	30.474 
09:10	25.3	25.3	25.3	85	21.4	0	0	---	0.00	30.474 
09:15	25.6	25.6	25.6	85	21.7	0	0	---	0.00	30.471 
09:20	25.8	25.8	25.8	84	21.6	0	0	---	0.00	30.471 
09:25	26.1	26.1	26.1	84	21.9	0	1	68	0.00	30.471 
09:30	26.4	26.4	26.4	83	22.0	0	1	68	0.00	30.458 
09:35	26.7	26.7	26.7	82	22.0	0	2	68	0.00	30.458 
09:40	27.0	27.0	27.0	80	21.7	1	3	68	0.00	30.458 
09:45	27.3	27.3	27.3	79	21.7	1	3	68	0.00	30.462 
09:50	27.5	27.5	27.5	79	21.9	2	4	90	0.00	30.462 
09:55	27.6	27.6	27.6	78	21.7	2	4	90	0.00	30.462 
10:00	27.8	27.8	27.8	78	21.8	2	4	90	0.00	30.463 
10:05	27.8	27.8	27.8	78	21.8	2	3	90	0.00	30.463 
10:10	28.1	28.1	28.1	78	22.1	1	3	90	0.00	30.463 
10:15	28.2	28.2	28.2	77	21.9	2	5	90	0.00	30.455 
10:20	28.4	28.4	28.4	78	22.4	1	3	90	0.00	30.455 
10:25	28.5	28.5	28.5	77	22.2	2	4	90	0.00	30.455 
10:30	28.7	28.7	28.7	77	22.4	2	5	90	0.00	30.455 
10:35	29.0	29.0	29.0	77	22.7	1	3	90	0.00	30.455 
10:40	29.0	29.0	29.0	76	22.4	2	5	90	0.00	30.455 
10:45	29.1	29.1	29.1	76	22.5	2	4	90	0.00	30.455 
10:50	29.4	29.4	29.4	76	22.8	1	3	90	0.00	30.455 
10:55	29.7	29.7	29.7	76	23.1	1	4	90	0.00	30.455 
11:00	30.0	30.0	30.0	75	23.1	2	5	90	0.00	30.446 
11:05	30.1	30.1	30.1	75	23.2	1	5	90	0.00	30.446 
11:10	30.3	30.3	30.3	74	23.0	2	4	112	0.00	30.446 
11:15	30.6	30.6	30.6	74	23.3	2	5	112	0.00	30.450 
11:20	30.7	30.7	30.7	75	23.7	1	7	112	0.00	30.450 
11:25	30.7	30.7	30.7	73	23.1	3	5	90	0.00	30.450 
11:30	30.9	30.9	30.9	73	23.3	1	4	90	0.00	30.438 
11:35	30.9	30.9	30.9	72	23.0	3	5	90	0.00	30.438 
11:40	31.0	31.0	31.0	72	23.1	2	5	112	0.00	30.438 
11:45	31.3	31.3	31.3	72	23.3	2	6	90	0.00	30.441 
11:50	31.6	31.6	31.6	72	23.6	1	5	90	0.00	30.441 
11:55	31.8	31.8	31.8	71	23.5	2	6	90	0.00	30.441 
12:00	31.8	31.8	31.8	71	23.5	2	5	90	0.00	30.437 
12:05	32.1	32.1	32.1	70	23.4	1	5	90	0.00	30.437 
12:10	32.4	32.4	32.4	70	23.7	1	3	112	0.00	30.437 
12:15	32.7	32.7	32.7	69	23.7	2	4	90	0.00	30.421 
12:20	32.7	32.7	32.7	69	23.7	2	6	90	0.00	30.421 
12:25	32.7	32.7	32.7	69	23.7	2	6	112	0.00	30.421 
12:30	32.7	32.7	32.7	69	23.7	2	6	90	0.00	30.408 
12:35	32.9	32.9	32.9	69	23.9	2	4	90	0.00	30.408 
12:40	32.8	32.8	32.8	68	23.4	3	5	112	0.00	30.408 
12:45	32.9	32.9	32.9	68	23.5	2	5	90	0.00	30.406 
12:50	33.1	33.1	33.1	68	23.7	2	5	68	0.00	30.406 
12:55	33.2	33.2	33.2	67	23.4	2	5	112	0.00	30.406 
13:00	33.2	33.2	33.2	67	23.4	2	5	90	0.00	30.412 
13:05	33.2	33.2	33.2	66	23.1	2	5	90	0.00	30.412 
13:10	33.1	33.1	33.1	67	23.4	2	6	112	0.00	30.412 
13:15	33.2	33.2	33.2	67	23.4	2	4	112	0.00	30.407 
13:20	33.1	33.1	33.1	67	23.4	3	6	90	0.00	30.407 
13:25	33.1	33.1	33.1	67	23.4	2	5	90	0.00	30.407 
13:30	33.2	33.2	33.2	67	23.4	2	4	90	0.00	30.388 
13:35	33.2	33.2	33.2	67	23.4	3	6	90	0.00	30.388 
13:40	33.2	33.2	33.2	67	23.4	3	6	90	0.00	30.388 
13:45	33.2	33.2	33.2	68	23.8	2	5	112	0.00	30.375 
13:50	33.5	33.5	33.5	68	24.1	1	5	90	0.00	30.375 
13:55	33.5	33.5	33.5	66	23.4	3	4	112	0.00	30.375 
14:00	33.5	33.5	33.5	67	23.7	2	4	112	0.00	30.384 
14:05	33.5	33.5	33.5	67	23.7	3	5	112	0.00	30.384 
14:10	33.7	33.7	33.7	66	23.6	1	4	112	0.00	30.384 
14:15	33.7	33.7	33.7	67	23.9	2	4	112	0.00	30.387 
14:20	33.8	33.8	33.8	67	24.0	1	3	112	0.00	30.387 
14:25	33.8	33.8	33.8	67	24.0	2	4	90	0.00	30.387 
14:30	33.8	33.8	33.8	67	24.0	2	5	112	0.00	30.373 
14:35	34.0	34.0	34.0	67	24.2	1	4	90	0.00	30.373 
14:40	34.1	34.1	34.1	67	24.3	1	4	112	0.00	30.373 
14:45	34.0	34.0	34.0	67	24.2	3	6	112	0.00	30.368 
14:50	34.1	34.1	34.1	66	23.9	2	5	112	0.00	30.368 
14:55	34.1	34.1	34.1	67	24.3	3	6	90	0.00	30.368 
15:00	34.3	34.3	34.3	67	24.5	2	5	90	0.00	30.363 
15:05	34.4	34.4	34.4	67	24.6	2	5	90	0.00	30.363 
15:10	34.6	34.6	34.6	66	24.4	2	5	90	0.00	30.363 
15:15	34.4	34.4	34.4	67	24.6	2	5	112	0.00	30.363 
15:20	34.7	34.7	34.7	66	24.5	1	3	112	0.00	30.363 
15:25	34.7	34.7	34.7	66	24.5	3	6	112	0.00	30.363 
15:30	34.6	34.6	34.6	67	24.8	2	5	112	0.00	30.358 
15:35	34.6	34.6	34.6	67	24.8	2	5	90	0.00	30.358 
15:40	34.7	34.7	34.7	67	24.9	1	3	112	0.00	30.358 
15:45	34.7	34.7	34.7	66	24.5	2	4	90	0.00	30.355 
15:50	34.7	34.7	34.7	66	24.5	2	5	112	0.00	30.355 
15:55	34.7	34.7	34.7	67	24.9	2	5	90	0.00	30.355 
16:00	34.6	34.6	34.6	67	24.8	3	6	112	0.00	30.351 
16:05	34.6	34.6	34.6	67	24.8	3	5	90	0.00	30.351 
16:10	34.6	34.6	34.6	67	24.8	2	5	112	0.00	30.351 
16:15	34.4	34.4	34.4	67	24.6	2	5	112	0.00	30.344 
16:20	34.4	34.4	34.4	68	24.9	1	4	112	0.00	30.344 
16:25	34.4	34.4	34.4	68	24.9	3	5	90	0.00	30.344 
16:30	34.3	34.3	34.3	68	24.9	2	4	90	0.00	30.342 
16:35	34.3	34.3	34.3	68	24.9	2	7	112	0.00	30.342 
16:40	34.3	34.3	34.3	68	24.9	3	5	112	0.00	30.342 
16:45	34.1	34.1	34.1	69	25.0	2	5	112	0.00	30.340 
16:50	34.1	34.1	34.1	69	25.0	2	5	112	0.00	30.340 
16:55	34.1	34.1	34.1	69	25.0	2	3	90	0.00	30.340 
17:00	34.1	34.1	34.1	68	24.7	2	4	90	0.00	30.340 
17:05	34.1	34.1	34.1	69	25.0	1	3	112	0.00	30.340 
17:10	34.0	34.0	34.0	69	24.9	2	4	90	0.00	30.340 
17:15	34.0	34.0	34.0	69	24.9	2	4	112	0.00	30.339 
17:20	34.0	34.0	34.0	69	24.9	2	4	112	0.00	30.339 
17:25	33.8	33.8	33.8	69	24.7	2	5	68	0.00	30.339 
17:30	33.8	33.8	33.8	70	25.1	2	4	68	0.00	30.336 
17:35	33.8	33.8	33.8	71	25.4	2	4	90	0.00	30.336 
17:40	33.7	33.7	33.7	72	25.7	1	4	112	0.00	30.336 
17:45	33.5	33.5	33.5	73	25.8	2	6	90	0.00	30.337 
17:50	33.4	33.4	33.4	74	26.0	2	6	112	0.00	30.337 
17:55	33.2	33.2	33.2	75	26.2	1	4	90	0.00	30.337 
18:00	33.1	33.1	33.1	75	26.1	2	6	90	0.00	30.334 
18:05	33.1	33.1	33.1	75	26.1	2	4	112	0.00	30.334 
18:10	32.9	32.9	32.9	76	26.2	2	4	90	0.00	30.334 
18:15	32.9	32.9	32.9	76	26.2	2	5	90	0.00	30.332 
18:20	32.8	32.8	32.8	77	26.4	1	3	90	0.00	30.332 
18:25	32.8	32.8	32.8	76	26.1	2	4	90	0.00	30.332 
18:30	32.8	32.8	32.8	77	26.4	1	3	112	0.00	30.345 
18:35	32.8	32.8	32.8	77	26.4	1	3	112	0.00	30.345 
18:40	32.7	32.7	32.7	77	26.3	2	5	90	0.00	30.345 
18:45	32.7	32.7	32.7	77	26.3	2	5	112	0.00	30.346 
18:50	32.7	32.7	32.7	77	26.3	2	4	90	0.00	30.346 
18:55	32.7	32.7	32.7	77	26.3	2	4	112	0.00	30.346 
19:00	32.7	32.7	32.7	77	26.3	2	5	112	0.00	30.345 
19:05	32.7	32.7	32.7	77	26.3	1	4	90	0.00	30.345 
19:10	32.5	32.5	32.5	77	26.1	2	5	112	0.00	30.345 
19:15	32.5	32.5	32.5	77	26.1	2	4	90	0.00	30.344 
19:20	32.5	32.5	32.5	77	26.1	2	4	112	0.00	30.344 
19:25	32.5	32.5	32.5	77	26.1	2	5	112	0.00	30.344 
19:30	32.5	32.5	32.5	77	26.1	1	4	112	0.00	30.339 
19:35	32.5	32.5	32.5	77	26.1	2	5	90	0.00	30.339 
19:40	32.4	32.4	32.4	77	26.0	2	6	90	0.00	30.339 
19:45	32.4	32.4	32.4	77	26.0	2	5	90	0.00	30.330 
19:50	32.4	32.4	32.4	77	26.0	1	4	90	0.00	30.330 
19:55	32.2	32.2	32.2	78	26.1	2	7	112	0.00	30.330 
20:00	32.2	32.2	32.2	78	26.1	2	5	90	0.00	30.334 
20:05	32.1	32.1	32.1	78	26.0	2	5	112	0.00	30.334 
20:10	32.1	32.1	32.1	78	26.0	1	4	112	0.00	30.334 
20:15	32.1	32.1	32.1	78	26.0	2	5	112	0.00	30.335 
20:20	31.9	31.9	31.9	78	25.8	1	4	112	0.00	30.335 
20:25	31.9	31.9	31.9	79	26.1	2	5	112	0.00	30.335 
20:30	31.9	31.9	31.9	79	26.1	2	4	90	0.00	30.332 
20:35	31.9	31.9	31.9	79	26.1	1	4	112	0.00	30.332 
20:40	31.8	31.8	31.8	79	26.0	2	4	112	0.00	30.332 
20:45	31.8	31.8	31.8	79	26.0	1	4	68	0.00	30.329 
20:50	31.8	31.8	31.8	79	26.0	1	4	90	0.00	30.329 
20:55	31.8	31.8	31.8	79	26.0	1	4	90	0.00	30.329 
21:00	31.8	31.8	31.8	79	26.0	1	6	90	0.00	30.326 
21:05	31.6	31.6	31.6	79	25.8	1	4	90	0.00	30.326 
21:10	31.6	31.6	31.6	80	26.2	1	4	90	0.00	30.326 
21:15	31.6	31.6	31.6	80	26.2	1	5	112	0.00	30.314 
21:20	31.5	31.5	31.5	80	26.1	1	4	90	0.00	30.314 
21:25	31.5	31.5	31.5	80	26.1	1	4	112	0.00	30.314 
21:30	31.5	31.5	31.5	80	26.1	1	3	90	0.00	30.309 
21:35	31.3	31.3	31.3	81	26.2	1	4	90	0.00	30.309 
21:40	31.3	31.3	31.3	81	26.2	1	4	90	0.00	30.309 
21:45	31.2	31.2	31.2	81	26.1	1	4	90	0.00	30.302 
21:50	31.2	31.2	31.2	81	26.1	1	4	112	0.00	30.302 
21:55	31.2	31.2	31.2	81	26.1	1	4	112	0.00	30.302 
22:00	31.2	31.2	31.2	81	26.1	1	4	112	0.00	30.298 
22:05	31.2	31.2	31.2	81	26.1	2	5	112	0.00	30.298 
22:10	31.2	31.2	31.2	81	26.1	1	4	112	0.00	30.298 
22:15	31.0	31.0	31.0	81	25.9	1	5	112	0.00	30.296 
22:20	31.0	31.0	31.0	81	25.9	1	3	112	0.00	30.296 
22:25	31.0	31.0	31.0	81	25.9	1	4	90	0.00	30.296 
22:30	30.9	30.9	30.9	81	25.8	1	3	135	0.00	30.288 
22:35	30.9	30.9	30.9	81	25.8	2	4	112	0.00	30.288 
22:40	30.9	30.9	30.9	81	25.8	2	6	90	0.00	30.288 
22:45	30.9	30.9	30.9	81	25.8	2	5	90	0.00	30.290 
22:50	30.9	30.9	30.9	81	25.8	1	3	112	0.00	30.290 
22:55	30.9	30.9	30.9	82	26.1	1	3	112	0.00	30.290 
23:00	30.7	30.7	30.7	82	25.9	2	4	90	0.00	30.294 
23:05	30.7	30.7	30.7	82	25.9	1	5	90	0.00	30.294 
23:10	30.7	30.7	30.7	82	25.9	2	6	90	0.00	30.294 
23:15	30.7	30.7	30.7	82	25.9	2	6	112	0.00	30.284 
23:20	30.7	30.7	30.7	82	25.9	2	5	112	0.00	30.284 
23:25	30.7	30.7	30.7	82	25.9	2	4	135	0.00	30.284 
23:30	30.7	30.7	30.7	82	25.9	2	4	90	0.00	30.278 
23:35	30.7	30.7	30.7	82	25.9	2	5	90	0.00	30.278 
23:40	30.6	30.6	30.6	82	25.8	2	3	112	0.00	30.278 
23:45	30.6	30.6	30.6	82	25.8	2	6	112	0.00	30.277 
23:50	30.6	30.6	30.6	82	25.8	2	5	112	0.00	30.277 
23:55	30.4	30.4	30.4	82	25.6	1	4	90	0.00	30.277 

CoCoRaHS
IN-AL-39
A2 Web Hosting
Creative Commons License
GoDaddy
search engine by freefind advanced

loaded 2018-11-15 14:03:33 • last modified 2010-11-18 10:43:29
Privacy PolicyDisclaimer
• wx.awcolley.com is powered by PmWiki v.2002016 •
• all content (unless otherwise noted) © 2018 A W Colley